createdAt,value
2022-08-07T00:00:39.964Z,12.47
2022-08-07T00:03:08.937Z,12.48
2022-08-07T00:05:37.434Z,12.44
2022-08-07T00:08:07.854Z,12.54
2022-08-07T00:10:48.240Z,12.63
2022-08-07T00:13:26.802Z,12.65
2022-08-07T00:15:55.675Z,12.74
2022-08-07T00:18:25.986Z,12.81
2022-08-07T00:20:56.843Z,12.99
2022-08-07T00:23:28.415Z,12.96
2022-08-07T00:26:06.883Z,12.80
2022-08-07T00:28:56.619Z,12.67
2022-08-07T00:31:26.051Z,12.54
2022-08-07T00:34:08.938Z,12.60
2022-08-07T00:36:42.741Z,12.69
2022-08-07T00:39:16.188Z,12.68
2022-08-07T00:41:53.624Z,12.51
2022-08-07T00:44:29.517Z,12.36
2022-08-07T00:46:57.417Z,12.19
2022-08-07T00:50:16.885Z,12.10
2022-08-07T00:52:17.628Z,12.02
2022-08-07T00:54:53.378Z,11.99
2022-08-07T00:57:25.168Z,11.99
2022-08-07T00:59:54.019Z,11.97
2022-08-07T01:02:28.916Z,11.78
2022-08-07T01:05:00.245Z,11.78
2022-08-07T01:07:30.959Z,11.73
2022-08-07T01:10:06.537Z,11.79
2022-08-07T01:12:53.489Z,11.73
2022-08-07T01:15:36.016Z,11.68
2022-08-07T01:18:17.195Z,11.51
2022-08-07T01:20:57.368Z,11.39
2022-08-07T01:23:38.052Z,11.24
2022-08-07T01:26:12.238Z,11.10
2022-08-07T01:28:46.213Z,11.00
2022-08-07T01:31:21.673Z,10.91
2022-08-07T01:33:57.296Z,10.87
2022-08-07T01:36:33.473Z,10.87
2022-08-07T01:39:09.857Z,10.87
2022-08-07T01:42:01.449Z,10.87
2022-08-07T01:44:31.208Z,10.97
2022-08-07T01:47:01.205Z,10.96
2022-08-07T01:49:44.208Z,10.87
2022-08-07T01:52:15.416Z,10.79
2022-08-07T01:54:47.006Z,10.74
2022-08-07T01:57:20.384Z,10.74
2022-08-07T01:59:56.040Z,10.64
2022-08-07T02:02:32.628Z,10.57
2022-08-07T02:05:43.288Z,10.60
2022-08-07T02:08:20.243Z,10.71
2022-08-07T02:10:57.907Z,10.79
2022-08-07T02:13:58.141Z,10.81
2022-08-07T02:16:32.960Z,10.77
2022-08-07T02:19:05.618Z,10.71
2022-08-07T02:21:55.057Z,10.64
2022-08-07T02:24:24.808Z,10.48
2022-08-07T02:26:54.671Z,10.36
2022-08-07T02:29:22.984Z,10.25
2022-08-07T02:31:52.360Z,10.20
2022-08-07T02:34:22.718Z,10.18
2022-08-07T02:36:56.156Z,10.19
2022-08-07T02:39:43.004Z,10.32
2022-08-07T02:42:19.218Z,10.38
2022-08-07T02:44:51.962Z,10.33
2022-08-07T02:47:24.869Z,10.32
2022-08-07T02:50:01.273Z,10.38
2022-08-07T02:52:38.675Z,10.67
2022-08-07T02:55:27.331Z,10.63
2022-08-07T02:58:04.800Z,10.49
2022-08-07T03:00:35.229Z,10.59
2022-08-07T03:03:07.444Z,10.70
2022-08-07T03:05:45.322Z,10.59
2022-08-07T03:08:14.766Z,10.64
2022-08-07T03:10:47.462Z,10.48
2022-08-07T03:13:22.960Z,10.49
2022-08-07T03:15:56.761Z,10.52
2022-08-07T03:18:34.721Z,10.53
2022-08-07T03:21:08.557Z,10.39
2022-08-07T03:24:19.075Z,10.25
2022-08-07T03:26:34.871Z,10.22
2022-08-07T03:29:11.059Z,10.28
2022-08-07T03:31:46.206Z,10.11
2022-08-07T03:34:22.153Z,10.15
2022-08-07T03:36:54.237Z,9.98
2022-08-07T03:39:59.094Z,10.35
2022-08-07T03:42:17.087Z,10.71
2022-08-07T03:44:53.441Z,10.63
2022-08-07T03:47:27.974Z,10.46
2022-08-07T03:49:58.981Z,10.23
2022-08-07T03:52:34.005Z,10.02
2022-08-07T03:55:06.781Z,9.91
2022-08-07T03:58:34.995Z,9.95
2022-08-07T04:00:35.614Z,9.91
2022-08-07T04:03:05.837Z,10.81
2022-08-07T04:05:41.950Z,12.22
2022-08-07T04:08:18.506Z,12.81
2022-08-07T04:10:53.802Z,13.26
2022-08-07T04:14:09.396Z,13.70
2022-08-07T04:16:31.454Z,13.94
2022-08-07T04:19:12.427Z,14.25
2022-08-07T04:21:48.073Z,14.42
2022-08-07T04:24:34.079Z,14.54
2022-08-07T04:27:20.509Z,14.83
2022-08-07T04:30:01.808Z,14.69
2022-08-07T04:32:39.846Z,14.48
2022-08-07T04:35:14.202Z,14.41
2022-08-07T04:38:03.044Z,14.59
2022-08-07T04:40:33.202Z,14.56
2022-08-07T04:43:10.758Z,14.48
2022-08-07T04:46:01.908Z,14.41
2022-08-07T04:48:44.890Z,14.65
2022-08-07T04:51:27.615Z,14.64
2022-08-07T04:54:06.744Z,14.55
2022-08-07T04:58:13.688Z,14.41
2022-08-07T05:00:13.055Z,14.05
2022-08-07T05:02:42.830Z,13.80
2022-08-07T05:05:54.162Z,13.78
2022-08-07T05:08:13.562Z,13.78
2022-08-07T05:10:46.962Z,13.80
2022-08-07T05:14:54.050Z,13.87
2022-08-07T05:16:10.635Z,13.95
2022-08-07T05:18:45.361Z,14.01
2022-08-07T05:21:18.352Z,14.35
2022-08-07T05:24:11.889Z,15.07
2022-08-07T05:26:42.138Z,15.67
2022-08-07T05:29:16.604Z,16.28
2022-08-07T05:31:52.744Z,16.92
2022-08-07T05:34:27.693Z,17.45
2022-08-07T05:36:58.650Z,18.21
2022-08-07T05:40:05.948Z,18.23
2022-08-07T05:42:34.304Z,19.30
2022-08-07T05:45:14.662Z,20.15
2022-08-07T05:48:03.611Z,20.90
2022-08-07T05:50:42.688Z,21.33
2022-08-07T05:54:13.828Z,21.88
2022-08-07T05:56:06.001Z,22.12
2022-08-07T05:58:40.280Z,21.28
2022-08-07T06:01:13.619Z,21.44
2022-08-07T06:03:56.467Z,22.35
2022-08-07T06:06:29.931Z,23.05
2022-08-07T06:09:04.320Z,24.02
2022-08-07T06:11:34.819Z,24.72
2022-08-07T06:14:11.851Z,25.22
2022-08-07T06:16:55.901Z,25.90
2022-08-07T06:19:57.779Z,26.67
2022-08-07T06:22:23.839Z,27.07
2022-08-07T06:25:10.273Z,27.44
2022-08-07T06:27:44.270Z,27.92
2022-08-07T06:30:35.472Z,28.49
2022-08-07T06:33:16.910Z,28.94
2022-08-07T06:36:11.754Z,29.42
2022-08-07T06:38:59.213Z,29.90
2022-08-07T06:42:01.094Z,29.76
2022-08-07T06:44:42.106Z,30.43
2022-08-07T06:47:15.279Z,30.78
2022-08-07T06:49:51.707Z,31.21
2022-08-07T06:52:36.005Z,32.20
2022-08-07T06:55:34.450Z,32.24
2022-08-07T06:58:05.856Z,32.41
2022-08-07T07:00:46.156Z,33.12
2022-08-07T07:03:17.272Z,32.85
2022-08-07T07:06:04.669Z,32.96
2022-08-07T07:08:35.961Z,33.29
2022-08-07T07:11:13.536Z,34.01
2022-08-07T07:14:01.388Z,34.91
2022-08-07T07:16:39.000Z,35.06
2022-08-07T07:19:56.480Z,35.30
2022-08-07T07:22:33.736Z,34.65
2022-08-07T07:25:02.904Z,34.74
2022-08-07T07:27:56.115Z,35.05
2022-08-07T07:30:38.410Z,34.54
2022-08-07T07:33:11.435Z,34.96
2022-08-07T07:35:54.417Z,35.90
2022-08-07T07:38:31.134Z,35.30
2022-08-07T07:41:03.984Z,36.31
2022-08-07T07:43:48.172Z,35.78
2022-08-07T07:46:37.035Z,36.41
2022-08-07T07:50:34.815Z,36.31
2022-08-07T07:52:07.763Z,36.20
2022-08-07T07:54:38.619Z,35.91
2022-08-07T07:57:14.234Z,35.81
2022-08-07T07:59:52.481Z,36.14
2022-08-07T08:02:35.373Z,36.23
2022-08-07T08:05:14.336Z,36.02
2022-08-07T08:07:59.790Z,36.31
2022-08-07T08:10:38.146Z,36.28
2022-08-07T08:13:10.616Z,36.45
2022-08-07T08:15:57.892Z,36.74
2022-08-07T08:18:30.389Z,36.78
2022-08-07T08:21:01.546Z,36.92
2022-08-07T08:23:51.660Z,36.79
2022-08-07T08:26:37.881Z,37.80
2022-08-07T08:29:08.290Z,36.11
2022-08-07T08:31:58.654Z,36.56
2022-08-07T08:34:39.560Z,36.36
2022-08-07T08:37:59.271Z,36.96
2022-08-07T08:40:02.967Z,36.71
2022-08-07T08:42:40.413Z,37.27
2022-08-07T08:45:19.334Z,36.78
2022-08-07T08:47:57.134Z,35.44
2022-08-07T08:50:39.158Z,34.94
2022-08-07T08:53:16.589Z,35.88
2022-08-07T08:55:55.184Z,36.53
2022-08-07T08:58:35.502Z,35.95
2022-08-07T09:01:16.125Z,35.57
2022-08-07T09:03:56.696Z,34.72
2022-08-07T09:06:38.386Z,35.05
2022-08-07T09:09:23.579Z,34.88
2022-08-07T09:12:30.365Z,35.42
2022-08-07T09:16:23.996Z,35.33
2022-08-07T09:18:22.673Z,36.24
2022-08-07T09:21:03.990Z,36.04
2022-08-07T09:24:32.256Z,34.75
2022-08-07T09:26:40.317Z,34.27
2022-08-07T09:30:03.416Z,33.27
2022-08-07T09:32:23.732Z,33.76
2022-08-07T09:36:04.017Z,33.62
2022-08-07T09:38:00.376Z,34.01
2022-08-07T09:40:36.955Z,31.10
2022-08-07T09:43:21.230Z,32.10
2022-08-07T09:47:23.589Z,32.61
2022-08-07T09:50:02.769Z,32.78
2022-08-07T09:52:34.450Z,31.72
2022-08-07T09:55:28.909Z,32.51
2022-08-07T09:58:32.264Z,31.55
2022-08-07T10:01:51.152Z,30.50
2022-08-07T10:04:33.206Z,30.68
2022-08-07T10:07:26.228Z,30.29
2022-08-07T10:10:12.077Z,30.64
2022-08-07T10:13:06.208Z,29.61
2022-08-07T10:15:55.590Z,31.29
2022-08-07T10:19:03.401Z,31.12
2022-08-07T10:22:14.731Z,31.15
2022-08-07T10:25:02.323Z,31.49
2022-08-07T10:27:46.690Z,32.23
2022-08-07T10:30:19.003Z,31.47
2022-08-07T10:33:08.470Z,30.65
2022-08-07T10:35:57.523Z,31.18
2022-08-07T10:38:48.998Z,31.63
2022-08-07T10:41:51.522Z,30.64
2022-08-07T10:44:33.752Z,31.67
2022-08-07T10:47:16.786Z,32.02
2022-08-07T10:49:53.139Z,32.43
2022-08-07T10:52:31.902Z,33.22
2022-08-07T10:55:26.994Z,33.16
2022-08-07T10:58:10.455Z,33.67
2022-08-07T11:00:50.353Z,31.90
2022-08-07T11:03:37.787Z,31.79
2022-08-07T11:06:27.106Z,32.44
2022-08-07T11:09:01.307Z,31.67
2022-08-07T11:11:35.604Z,28.35
2022-08-07T11:14:45.255Z,28.11
2022-08-07T11:17:02.173Z,29.17
2022-08-07T11:19:37.435Z,29.73
2022-08-07T11:22:19.166Z,30.36
2022-08-07T11:25:08.650Z,29.72
2022-08-07T11:28:02.366Z,28.83
2022-08-07T11:30:42.213Z,28.21
2022-08-07T11:33:17.829Z,29.39
2022-08-07T11:36:08.107Z,29.66
2022-08-07T11:38:50.706Z,31.14
2022-08-07T11:42:00.457Z,31.04
2022-08-07T11:44:22.416Z,31.39
2022-08-07T11:47:01.920Z,31.94
2022-08-07T11:50:31.571Z,32.45
2022-08-07T11:53:11.180Z,30.73
2022-08-07T11:56:09.527Z,30.20
2022-08-07T11:58:54.841Z,31.52
2022-08-07T12:01:53.220Z,31.70
2022-08-07T12:04:39.429Z,31.41
2022-08-07T12:07:20.385Z,31.77
2022-08-07T12:10:05.799Z,31.26
2022-08-07T12:12:41.193Z,31.35
2022-08-07T12:15:17.159Z,31.82
2022-08-07T12:18:08.119Z,31.39
2022-08-07T12:20:49.371Z,30.96
2022-08-07T12:24:05.294Z,29.35
2022-08-07T12:26:35.472Z,29.52
2022-08-07T12:29:38.015Z,28.63
2022-08-07T12:32:15.433Z,29.10
2022-08-07T12:34:49.622Z,29.89
2022-08-07T12:37:28.391Z,30.40
2022-08-07T12:40:43.886Z,30.67
2022-08-07T12:43:10.523Z,29.72
2022-08-07T12:45:50.400Z,29.48
2022-08-07T12:48:41.541Z,29.59
2022-08-07T12:51:22.058Z,30.39
2022-08-07T12:54:24.119Z,29.21
2022-08-07T12:56:51.399Z,29.64
2022-08-07T12:59:33.129Z,28.74
2022-08-07T13:02:33.503Z,29.07
2022-08-07T13:06:01.812Z,29.31
2022-08-07T13:08:24.871Z,28.67
2022-08-07T13:11:06.670Z,29.03
2022-08-07T13:13:52.420Z,27.70
2022-08-07T13:16:30.584Z,28.63
2022-08-07T13:19:11.438Z,27.04
2022-08-07T13:22:02.089Z,27.90
2022-08-07T13:24:52.264Z,26.56
2022-08-07T13:28:05.693Z,27.16
2022-08-07T13:30:19.504Z,27.20
2022-08-07T13:33:06.359Z,26.34
2022-08-07T13:36:05.653Z,26.79
2022-08-07T13:38:42.051Z,26.44
2022-08-07T13:41:16.609Z,26.98
2022-08-07T13:43:52.691Z,26.98
2022-08-07T13:46:28.921Z,27.41
2022-08-07T13:49:03.393Z,27.50
2022-08-07T13:52:22.799Z,26.61
2022-08-07T13:54:33.447Z,26.20
2022-08-07T13:57:03.854Z,26.51
2022-08-07T13:59:34.415Z,26.72
2022-08-07T14:02:12.969Z,26.95
2022-08-07T14:04:51.634Z,26.68
2022-08-07T14:07:30.610Z,26.28
2022-08-07T14:10:20.486Z,26.17
2022-08-07T14:12:55.607Z,25.60
2022-08-07T14:15:34.837Z,25.67
2022-08-07T14:18:23.630Z,25.65
2022-08-07T14:21:00.266Z,25.54
2022-08-07T14:24:00.492Z,26.00
2022-08-07T14:26:33.523Z,26.13
2022-08-07T14:30:06.503Z,26.32
2022-08-07T14:32:01.093Z,26.20
2022-08-07T14:34:31.760Z,25.66
2022-08-07T14:37:02.993Z,25.74
2022-08-07T14:40:18.046Z,26.10
2022-08-07T14:42:31.321Z,25.97
2022-08-07T14:45:21.951Z,25.98
2022-08-07T14:47:53.063Z,26.11
2022-08-07T14:50:28.826Z,25.80
2022-08-07T14:53:07.658Z,25.67
2022-08-07T14:55:55.649Z,25.42
2022-08-07T14:58:32.515Z,25.54
2022-08-07T15:01:21.833Z,25.58
2022-08-07T15:03:52.484Z,25.65
2022-08-07T15:06:25.816Z,25.56
2022-08-07T15:08:55.979Z,25.50
2022-08-07T15:11:54.113Z,25.58
2022-08-07T15:14:18.917Z,25.53
2022-08-07T15:16:54.876Z,25.04
2022-08-07T15:22:29.102Z,25.26
2022-08-07T15:25:18.482Z,25.11
2022-08-07T15:30:59.498Z,24.88
2022-08-07T15:33:33.670Z,24.95
2022-08-07T15:36:07.507Z,24.95
2022-08-07T15:38:58.830Z,24.98
2022-08-07T15:42:45.203Z,24.75
2022-08-07T15:44:23.724Z,24.94
2022-08-07T15:46:58.734Z,24.89
2022-08-07T15:52:30.230Z,24.99
2022-08-07T15:55:02.249Z,24.92
2022-08-07T15:57:47.549Z,24.91
2022-08-07T16:00:31.921Z,24.58
2022-08-07T16:03:05.696Z,24.75
2022-08-07T16:05:34.918Z,24.92
2022-08-07T16:08:32.055Z,24.71
2022-08-07T16:11:02.594Z,24.78
2022-08-07T16:13:59.746Z,24.75
2022-08-07T16:16:48.541Z,24.72
2022-08-07T16:19:42.692Z,24.79
2022-08-07T16:22:56.579Z,24.48
2022-08-07T16:25:54.070Z,24.43
2022-08-07T16:30:06.017Z,24.48
2022-08-07T16:31:51.290Z,24.57
2022-08-07T16:34:37.798Z,24.20
2022-08-07T16:38:06.206Z,24.44
2022-08-07T16:40:57.070Z,24.28
2022-08-07T16:44:05.532Z,24.16
2022-08-07T16:47:14.366Z,24.21
2022-08-07T16:50:28.132Z,24.23
2022-08-07T16:53:55.595Z,24.17
2022-08-07T16:56:07.669Z,24.16
2022-08-07T16:59:11.451Z,24.14
2022-08-07T17:01:56.634Z,24.20
2022-08-07T17:04:51.010Z,24.13
2022-08-07T17:07:55.118Z,24.12
2022-08-07T17:10:34.036Z,24.03
2022-08-07T17:13:41.368Z,24.03
2022-08-07T17:16:27.065Z,23.75
2022-08-07T17:19:04.647Z,23.65
2022-08-07T17:21:51.888Z,23.66
2022-08-07T17:24:47.023Z,23.73
2022-08-07T17:27:19.981Z,23.59
2022-08-07T17:30:14.490Z,23.48
2022-08-07T17:34:09.491Z,23.35
2022-08-07T17:36:00.101Z,23.32
2022-08-07T17:38:36.667Z,23.21
2022-08-07T17:42:00.874Z,23.21
2022-08-07T17:44:06.643Z,23.10
2022-08-07T17:46:47.046Z,23.07
2022-08-07T17:49:24.162Z,23.00
2022-08-07T17:52:00.427Z,23.01
2022-08-07T17:54:54.083Z,22.88
2022-08-07T17:57:32.003Z,22.91
2022-08-07T18:00:33.353Z,22.87
2022-08-07T18:03:18.542Z,22.76
2022-08-07T18:06:01.932Z,22.64
2022-08-07T18:08:34.991Z,22.61
2022-08-07T18:12:17.898Z,22.50
2022-08-07T18:14:06.691Z,22.45
2022-08-07T18:16:37.313Z,22.46
2022-08-07T18:21:11.510Z,22.33
2022-08-07T18:22:29.799Z,22.26
2022-08-07T18:25:19.260Z,22.22
2022-08-07T18:28:33.094Z,22.13
2022-08-07T18:31:05.232Z,22.15
2022-08-07T18:34:37.104Z,22.02
2022-08-07T18:37:09.687Z,22.01
2022-08-07T18:40:08.133Z,21.89
2022-08-07T18:42:48.085Z,21.86
2022-08-07T18:45:43.415Z,21.91
2022-08-07T18:49:03.654Z,21.85
2022-08-07T18:51:17.399Z,21.77
2022-08-07T18:54:27.991Z,21.75
2022-08-07T18:57:29.380Z,21.71
2022-08-07T19:00:33.158Z,21.55
2022-08-07T19:03:03.941Z,21.51
2022-08-07T19:06:02.578Z,21.47
2022-08-07T19:08:42.900Z,21.47
2022-08-07T19:11:36.396Z,21.38
2022-08-07T19:14:17.325Z,21.31
2022-08-07T19:17:05.461Z,21.26
2022-08-07T19:19:48.751Z,21.07
2022-08-07T19:22:30.958Z,20.97
2022-08-07T19:25:05.757Z,20.89
2022-08-07T19:28:29.376Z,20.93
2022-08-07T19:31:00.400Z,20.86
2022-08-07T19:33:16.042Z,20.80
2022-08-07T19:35:52.722Z,20.66
2022-08-07T19:38:21.179Z,20.53
2022-08-07T19:40:52.377Z,20.48
2022-08-07T19:43:49.562Z,20.57
2022-08-07T19:46:26.805Z,20.63
2022-08-07T19:49:02.120Z,20.62
2022-08-07T19:51:52.364Z,20.45
2022-08-07T19:54:31.491Z,20.51
2022-08-07T19:58:01.098Z,20.28
2022-08-07T19:59:57.219Z,20.38
2022-08-07T20:02:30.139Z,20.24
2022-08-07T20:05:00.955Z,20.20
2022-08-07T20:07:47.411Z,20.01
2022-08-07T20:10:35.617Z,19.91
2022-08-07T20:13:22.943Z,20.17
2022-08-07T20:15:53.892Z,20.20
2022-08-07T20:18:33.372Z,20.26
2022-08-07T20:21:21.117Z,19.90
2022-08-07T20:23:54.768Z,19.69
2022-08-07T20:26:32.552Z,19.56
2022-08-07T20:29:46.512Z,19.42
2022-08-07T20:32:02.273Z,19.30
2022-08-07T20:34:50.023Z,19.26
2022-08-07T20:37:24.213Z,19.54
2022-08-07T20:40:03.655Z,19.66
2022-08-07T20:42:35.347Z,19.67
2022-08-07T20:45:32.541Z,19.56
2022-08-07T20:47:57.787Z,19.59
2022-08-07T20:50:29.054Z,19.56
2022-08-07T20:52:59.260Z,19.40
2022-08-07T20:55:31.998Z,19.30
2022-08-07T20:58:12.062Z,19.23
2022-08-07T21:00:53.146Z,19.32
2022-08-07T21:03:25.537Z,19.45
2022-08-07T21:05:57.807Z,19.24
2022-08-07T21:08:36.719Z,19.29
2022-08-07T21:11:12.418Z,19.29
2022-08-07T21:14:16.531Z,19.16
2022-08-07T21:16:56.238Z,18.99
2022-08-07T21:19:32.301Z,18.96
2022-08-07T21:22:16.538Z,18.96
2022-08-07T21:25:11.700Z,18.91
2022-08-07T21:27:53.712Z,18.95
2022-08-07T21:30:30.128Z,18.81
2022-08-07T21:33:07.984Z,18.84
2022-08-07T21:36:06.418Z,18.79
2022-08-07T21:38:32.024Z,18.65
2022-08-07T21:41:10.746Z,18.41
2022-08-07T21:43:55.576Z,18.44
2022-08-07T21:46:32.419Z,18.40
2022-08-07T21:49:21.083Z,18.30
2022-08-07T21:52:11.519Z,18.21
2022-08-07T21:54:56.690Z,18.18
2022-08-07T21:57:51.697Z,18.06
2022-08-07T22:00:25.167Z,17.85
2022-08-07T22:03:07.386Z,17.94
2022-08-07T22:05:48.173Z,17.99
2022-08-07T22:08:20.065Z,18.03
2022-08-07T22:10:50.781Z,17.97
2022-08-07T22:13:24.242Z,17.75
2022-08-07T22:16:45.743Z,17.80
2022-08-07T22:19:08.144Z,17.73
2022-08-07T22:22:02.143Z,17.75
2022-08-07T22:24:35.424Z,18.29
2022-08-07T22:27:11.992Z,18.34
2022-08-07T22:29:48.035Z,17.93
2022-08-07T22:32:24.648Z,17.62
2022-08-07T22:34:54.869Z,17.69
2022-08-07T22:38:01.704Z,17.78
2022-08-07T22:40:25.774Z,17.68
2022-08-07T22:43:02.848Z,17.55
2022-08-07T22:46:21.136Z,17.39
2022-08-07T22:49:07.842Z,17.31
2022-08-07T22:52:10.116Z,17.45
2022-08-07T22:54:54.907Z,17.51
2022-08-07T22:57:46.587Z,17.79
2022-08-07T23:00:28.514Z,17.76
2022-08-07T23:03:14.105Z,17.35
2022-08-07T23:06:16.691Z,17.43
2022-08-07T23:10:03.368Z,17.41
2022-08-07T23:12:03.184Z,17.35
2022-08-07T23:14:50.995Z,17.49
2022-08-07T23:17:46.187Z,17.35
2022-08-07T23:20:52.966Z,17.39
2022-08-07T23:24:05.781Z,17.86
2022-08-07T23:26:55.132Z,17.38
2022-08-07T23:29:43.832Z,17.01
2022-08-07T23:34:22.909Z,16.92
2022-08-07T23:35:53.176Z,17.00
2022-08-07T23:38:36.925Z,17.08
2022-08-07T23:41:24.517Z,16.95
2022-08-07T23:44:48.956Z,16.73
2022-08-07T23:47:29.679Z,16.66
2022-08-07T23:50:16.457Z,16.77
2022-08-07T23:53:11.882Z,16.98
2022-08-07T23:55:52.692Z,16.90
2022-08-07T23:58:27.350Z,16.94
